Cercedilla, Spain
Current Conditions -  °F | °C
As of 11:28 AM on Thursday 27 Nov 2014 (Local Time) from LECV Reporting Station
Drizzle Drizzle  
Wind Chill: 39°   Ceiling: 100
Heat Index: 45°   Visibility: 0.12mi
Dew Point: 45°   Wind: 10mph
Humidity: 100%   Direction: 140°SE
Pressure: 29.62"   Gusts: NA
Location:  40.74°N, 4.06°W
Report Text: LECV 271028Z 14009KT 110V170 0200 FG DZ VV001 07/07 Q1003
Loading
Personal Weather Stations






























Interactive Weather Map New forecast layout! Learn more

10-Day Weather Forecast

Advertisements
Track Severe Weather on mobile